sensor_id;sensor_type;location;lat;lon;timestamp;P1;durP1;ratioP1;P2;durP2;ratioP2
5871;SDS011;2962;51.312;7.378;2023-04-24T00:02:18;0.83;;;0.50;;
5871;SDS011;2962;51.312;7.378;2023-04-24T00:04:43;0.33;;;0.33;;
5871;SDS011;2962;51.312;7.378;2023-04-24T00:07:10;0.30;;;0.30;;
5871;SDS011;2962;51.312;7.378;2023-04-24T00:09:36;1.20;;;0.50;;
5871;SDS011;2962;51.312;7.378;2023-04-24T00:12:01;0.33;;;0.33;;
5871;SDS011;2962;51.312;7.378;2023-04-24T00:14:29;3.20;;;0.70;;
5871;SDS011;2962;51.312;7.378;2023-04-24T00:16:54;0.63;;;0.63;;
5871;SDS011;2962;51.312;7.378;2023-04-24T00:19:20;2.77;;;0.57;;
5871;SDS011;2962;51.312;7.378;2023-04-24T00:21:46;0.70;;;0.70;;
5871;SDS011;2962;51.312;7.378;2023-04-24T00:24:11;4.13;;;0.43;;
5871;SDS011;2962;51.312;7.378;2023-04-24T00:26:37;1.20;;;0.80;;
5871;SDS011;2962;51.312;7.378;2023-04-24T00:29:02;0.60;;;0.60;;
5871;SDS011;2962;51.312;7.378;2023-04-24T00:31:28;1.17;;;0.60;;
5871;SDS011;2962;51.312;7.378;2023-04-24T00:33:53;0.40;;;0.40;;
5871;SDS011;2962;51.312;7.378;2023-04-24T00:36:19;0.80;;;0.80;;
5871;SDS011;2962;51.312;7.378;2023-04-24T00:38:45;0.40;;;0.40;;
5871;SDS011;2962;51.312;7.378;2023-04-24T00:41:11;1.27;;;0.50;;
5871;SDS011;2962;51.312;7.378;2023-04-24T00:43:36;0.60;;;0.60;;
5871;SDS011;2962;51.312;7.378;2023-04-24T00:46:02;2.47;;;0.70;;
5871;SDS011;2962;51.312;7.378;2023-04-24T00:48:27;0.60;;;0.60;;
5871;SDS011;2962;51.312;7.378;2023-04-24T00:50:53;0.53;;;0.53;;
5871;SDS011;2962;51.312;7.378;2023-04-24T00:53:18;0.70;;;0.70;;
5871;SDS011;2962;51.312;7.378;2023-04-24T00:55:44;0.60;;;0.60;;
5871;SDS011;2962;51.312;7.378;2023-04-24T00:58:10;0.53;;;0.53;;
5871;SDS011;2962;51.312;7.378;2023-04-24T01:00:36;0.60;;;0.60;;
5871;SDS011;2962;51.312;7.378;2023-04-24T01:03:01;0.80;;;0.80;;
5871;SDS011;2962;51.312;7.378;2023-04-24T01:05:29;0.80;;;0.80;;
5871;SDS011;2962;51.312;7.378;2023-04-24T01:07:55;1.13;;;0.80;;
5871;SDS011;2962;51.312;7.378;2023-04-24T01:10:21;0.80;;;0.80;;
5871;SDS011;2962;51.312;7.378;2023-04-24T01:12:47;0.70;;;0.70;;
5871;SDS011;2962;51.312;7.378;2023-04-24T01:15:13;0.63;;;0.63;;
5871;SDS011;2962;51.312;7.378;2023-04-24T01:17:38;1.13;;;0.70;;
5871;SDS011;2962;51.312;7.378;2023-04-24T01:20:04;0.83;;;0.83;;
5871;SDS011;2962;51.312;7.378;2023-04-24T01:22:30;0.67;;;0.67;;
5871;SDS011;2962;51.312;7.378;2023-04-24T01:24:56;1.70;;;0.77;;
5871;SDS011;2962;51.312;7.378;2023-04-24T01:27:22;0.53;;;0.53;;
5871;SDS011;2962;51.312;7.378;2023-04-24T01:29:47;1.20;;;0.60;;
5871;SDS011;2962;51.312;7.378;2023-04-24T01:32:14;0.60;;;0.43;;
5871;SDS011;2962;51.312;7.378;2023-04-24T01:34:40;1.23;;;0.70;;
5871;SDS011;2962;51.312;7.378;2023-04-24T01:37:05;1.33;;;0.70;;
5871;SDS011;2962;51.312;7.378;2023-04-24T01:39:31;0.70;;;0.70;;
5871;SDS011;2962;51.312;7.378;2023-04-24T01:41:58;0.83;;;0.80;;
5871;SDS011;2962;51.312;7.378;2023-04-24T01:44:24;1.40;;;0.90;;
5871;SDS011;2962;51.312;7.378;2023-04-24T01:46:51;0.80;;;0.80;;
5871;SDS011;2962;51.312;7.378;2023-04-24T01:49:16;1.10;;;1.10;;
5871;SDS011;2962;51.312;7.378;2023-04-24T01:51:42;1.17;;;1.17;;
5871;SDS011;2962;51.312;7.378;2023-04-24T01:54:07;1.40;;;1.40;;
5871;SDS011;2962;51.312;7.378;2023-04-24T01:56:33;1.37;;;1.30;;
5871;SDS011;2962;51.312;7.378;2023-04-24T01:59:00;1.60;;;1.60;;
5871;SDS011;2962;51.312;7.378;2023-04-24T02:01:29;1.90;;;1.03;;
5871;SDS011;2962;51.312;7.378;2023-04-24T02:03:58;1.83;;;1.83;;
5871;SDS011;2962;51.312;7.378;2023-04-24T02:06:24;1.77;;;1.77;;
5871;SDS011;2962;51.312;7.378;2023-04-24T02:08:49;1.87;;;1.87;;
5871;SDS011;2962;51.312;7.378;2023-04-24T02:11:15;2.63;;;1.90;;
5871;SDS011;2962;51.312;7.378;2023-04-24T02:13:40;2.90;;;2.80;;
5871;SDS011;2962;51.312;7.378;2023-04-24T02:16:05;2.57;;;2.47;;
5871;SDS011;2962;51.312;7.378;2023-04-24T02:18:31;3.23;;;2.70;;
5871;SDS011;2962;51.312;7.378;2023-04-24T02:20:56;2.67;;;2.67;;
5871;SDS011;2962;51.312;7.378;2023-04-24T02:23:21;2.73;;;2.57;;
5871;SDS011;2962;51.312;7.378;2023-04-24T02:25:47;2.90;;;2.77;;
5871;SDS011;2962;51.312;7.378;2023-04-24T02:28:12;1.23;;;1.23;;
5871;SDS011;2962;51.312;7.378;2023-04-24T02:30:37;3.77;;;2.23;;
5871;SDS011;2962;51.312;7.378;2023-04-24T02:33:03;2.80;;;2.60;;
5871;SDS011;2962;51.312;7.378;2023-04-24T02:35:28;2.90;;;2.70;;
5871;SDS011;2962;51.312;7.378;2023-04-24T02:37:53;3.03;;;3.03;;
5871;SDS011;2962;51.312;7.378;2023-04-24T02:40:19;3.33;;;3.13;;
5871;SDS011;2962;51.312;7.378;2023-04-24T02:42:44;3.20;;;3.03;;
5871;SDS011;2962;51.312;7.378;2023-04-24T02:45:10;2.93;;;2.70;;
5871;SDS011;2962;51.312;7.378;2023-04-24T02:47:35;4.30;;;4.10;;
5871;SDS011;2962;51.312;7.378;2023-04-24T02:50:01;4.13;;;3.93;;
5871;SDS011;2962;51.312;7.378;2023-04-24T02:52:28;4.73;;;4.13;;
5871;SDS011;2962;51.312;7.378;2023-04-24T02:54:53;4.73;;;4.30;;
5871;SDS011;2962;51.312;7.378;2023-04-24T02:57:19;5.43;;;4.93;;
5871;SDS011;2962;51.312;7.378;2023-04-24T02:59:44;5.83;;;5.17;;
5871;SDS011;2962;51.312;7.378;2023-04-24T03:02:10;6.20;;;5.63;;
5871;SDS011;2962;51.312;7.378;2023-04-24T03:04:35;5.93;;;5.53;;
5871;SDS011;2962;51.312;7.378;2023-04-24T03:07:01;5.33;;;5.03;;
5871;SDS011;2962;51.312;7.378;2023-04-24T03:09:26;15.57;;;7.53;;
5871;SDS011;2962;51.312;7.378;2023-04-24T03:11:52;9.77;;;8.20;;
5871;SDS011;2962;51.312;7.378;2023-04-24T03:14:17;14.37;;;9.40;;
5871;SDS011;2962;51.312;7.378;2023-04-24T03:16:42;10.30;;;9.10;;
5871;SDS011;2962;51.312;7.378;2023-04-24T03:19:08;9.80;;;8.70;;
5871;SDS011;2962;51.312;7.378;2023-04-24T03:21:33;8.73;;;7.93;;
5871;SDS011;2962;51.312;7.378;2023-04-24T03:24:00;13.00;;;10.90;;
5871;SDS011;2962;51.312;7.378;2023-04-24T03:26:26;14.97;;;11.33;;
5871;SDS011;2962;51.312;7.378;2023-04-24T03:28:51;17.30;;;10.70;;
5871;SDS011;2962;51.312;7.378;2023-04-24T03:31:16;14.33;;;10.20;;
5871;SDS011;2962;51.312;7.378;2023-04-24T03:33:42;9.67;;;8.70;;
5871;SDS011;2962;51.312;7.378;2023-04-24T03:36:07;11.77;;;10.00;;
5871;SDS011;2962;51.312;7.378;2023-04-24T03:38:32;13.10;;;10.97;;
5871;SDS011;2962;51.312;7.378;2023-04-24T03:40:58;10.63;;;9.63;;
5871;SDS011;2962;51.312;7.378;2023-04-24T03:43:23;12.90;;;9.17;;
5871;SDS011;2962;51.312;7.378;2023-04-24T03:45:48;8.83;;;8.03;;
5871;SDS011;2962;51.312;7.378;2023-04-24T03:48:14;13.13;;;9.20;;
5871;SDS011;2962;51.312;7.378;2023-04-24T03:50:39;14.23;;;9.83;;
5871;SDS011;2962;51.312;7.378;2023-04-24T03:53:05;10.70;;;8.17;;
5871;SDS011;2962;51.312;7.378;2023-04-24T03:55:30;9.87;;;8.50;;
5871;SDS011;2962;51.312;7.378;2023-04-24T03:57:55;9.57;;;8.67;;
5871;SDS011;2962;51.312;7.378;2023-04-24T04:00:21;10.33;;;9.33;;
5871;SDS011;2962;51.312;7.378;2023-04-24T04:02:46;12.43;;;7.27;;
5871;SDS011;2962;51.312;7.378;2023-04-24T04:05:11;11.77;;;7.17;;
5871;SDS011;2962;51.312;7.378;2023-04-24T04:07:37;9.93;;;8.70;;
5871;SDS011;2962;51.312;7.378;2023-04-24T04:10:02;10.77;;;8.80;;
5871;SDS011;2962;51.312;7.378;2023-04-24T04:12:28;10.13;;;8.13;;
5871;SDS011;2962;51.312;7.378;2023-04-24T04:14:53;11.70;;;9.17;;
5871;SDS011;2962;51.312;7.378;2023-04-24T04:17:19;10.83;;;8.50;;
5871;SDS011;2962;51.312;7.378;2023-04-24T04:19:44;19.40;;;9.20;;
5871;SDS011;2962;51.312;7.378;2023-04-24T04:22:09;13.83;;;9.50;;
5871;SDS011;2962;51.312;7.378;2023-04-24T04:24:35;12.27;;;9.13;;
5871;SDS011;2962;51.312;7.378;2023-04-24T04:27:03;9.73;;;8.63;;
5871;SDS011;2962;51.312;7.378;2023-04-24T04:29:29;11.23;;;8.70;;
5871;SDS011;2962;51.312;7.378;2023-04-24T04:31:56;9.33;;;8.00;;
5871;SDS011;2962;51.312;7.378;2023-04-24T04:34:22;10.13;;;7.40;;
5871;SDS011;2962;51.312;7.378;2023-04-24T04:36:47;13.20;;;10.03;;
5871;SDS011;2962;51.312;7.378;2023-04-24T04:39:13;12.93;;;9.30;;
5871;SDS011;2962;51.312;7.378;2023-04-24T04:41:40;11.40;;;10.20;;
5871;SDS011;2962;51.312;7.378;2023-04-24T04:44:05;12.87;;;10.00;;
5871;SDS011;2962;51.312;7.378;2023-04-24T04:46:31;12.53;;;9.23;;
5871;SDS011;2962;51.312;7.378;2023-04-24T04:49:02;14.23;;;10.60;;
5871;SDS011;2962;51.312;7.378;2023-04-24T04:51:27;15.77;;;10.80;;
5871;SDS011;2962;51.312;7.378;2023-04-24T04:53:53;12.90;;;10.13;;
5871;SDS011;2962;51.312;7.378;2023-04-24T04:56:18;10.90;;;9.70;;
5871;SDS011;2962;51.312;7.378;2023-04-24T04:58:44;12.10;;;8.90;;
5871;SDS011;2962;51.312;7.378;2023-04-24T05:01:09;12.03;;;9.80;;
5871;SDS011;2962;51.312;7.378;2023-04-24T05:03:35;13.43;;;9.30;;
5871;SDS011;2962;51.312;7.378;2023-04-24T05:06:01;8.50;;;7.33;;
5871;SDS011;2962;51.312;7.378;2023-04-24T05:08:26;9.37;;;8.20;;
5871;SDS011;2962;51.312;7.378;2023-04-24T05:10:52;10.70;;;8.80;;
5871;SDS011;2962;51.312;7.378;2023-04-24T05:13:18;15.13;;;12.93;;
5871;SDS011;2962;51.312;7.378;2023-04-24T05:15:43;13.90;;;10.70;;
5871;SDS011;2962;51.312;7.378;2023-04-24T05:18:08;14.97;;;11.13;;
5871;SDS011;2962;51.312;7.378;2023-04-24T05:20:34;12.60;;;10.50;;
5871;SDS011;2962;51.312;7.378;2023-04-24T05:22:59;22.10;;;11.70;;
5871;SDS011;2962;51.312;7.378;2023-04-24T05:25:24;17.53;;;11.10;;
5871;SDS011;2962;51.312;7.378;2023-04-24T05:27:50;10.63;;;9.40;;
5871;SDS011;2962;51.312;7.378;2023-04-24T05:30:15;13.70;;;10.67;;
5871;SDS011;2962;51.312;7.378;2023-04-24T05:32:41;11.60;;;10.40;;
5871;SDS011;2962;51.312;7.378;2023-04-24T05:35:06;11.20;;;8.00;;
5871;SDS011;2962;51.312;7.378;2023-04-24T05:37:32;10.67;;;9.57;;
5871;SDS011;2962;51.312;7.378;2023-04-24T05:39:57;14.93;;;9.87;;
5871;SDS011;2962;51.312;7.378;2023-04-24T05:42:23;12.57;;;11.17;;
5871;SDS011;2962;51.312;7.378;2023-04-24T05:44:48;12.37;;;10.53;;
5871;SDS011;2962;51.312;7.378;2023-04-24T05:47:14;10.10;;;9.20;;
5871;SDS011;2962;51.312;7.378;2023-04-24T05:49:39;14.90;;;9.50;;
5871;SDS011;2962;51.312;7.378;2023-04-24T05:52:04;12.67;;;10.30;;
5871;SDS011;2962;51.312;7.378;2023-04-24T05:54:31;15.40;;;11.27;;
5871;SDS011;2962;51.312;7.378;2023-04-24T05:56:56;14.83;;;10.13;;
5871;SDS011;2962;51.312;7.378;2023-04-24T05:59:22;14.30;;;10.73;;
5871;SDS011;2962;51.312;7.378;2023-04-24T06:01:47;16.50;;;10.43;;
5871;SDS011;2962;51.312;7.378;2023-04-24T06:04:12;18.40;;;8.80;;
5871;SDS011;2962;51.312;7.378;2023-04-24T06:06:41;16.17;;;10.87;;
5871;SDS011;2962;51.312;7.378;2023-04-24T06:09:06;9.33;;;8.07;;
5871;SDS011;2962;51.312;7.378;2023-04-24T06:11:31;10.60;;;8.90;;
5871;SDS011;2962;51.312;7.378;2023-04-24T06:13:57;10.30;;;9.30;;
5871;SDS011;2962;51.312;7.378;2023-04-24T06:16:22;8.83;;;7.93;;
5871;SDS011;2962;51.312;7.378;2023-04-24T06:18:47;9.37;;;8.00;;
5871;SDS011;2962;51.312;7.378;2023-04-24T06:21:13;10.20;;;7.80;;
5871;SDS011;2962;51.312;7.378;2023-04-24T06:23:38;9.47;;;8.17;;
5871;SDS011;2962;51.312;7.378;2023-04-24T06:26:03;8.73;;;7.73;;
5871;SDS011;2962;51.312;7.378;2023-04-24T06:28:29;7.40;;;6.40;;
5871;SDS011;2962;51.312;7.378;2023-04-24T06:30:54;8.63;;;7.80;;
5871;SDS011;2962;51.312;7.378;2023-04-24T06:33:20;8.57;;;7.77;;
5871;SDS011;2962;51.312;7.378;2023-04-24T06:35:46;8.33;;;7.50;;
5871;SDS011;2962;51.312;7.378;2023-04-24T06:38:11;8.90;;;8.00;;
5871;SDS011;2962;51.312;7.378;2023-04-24T06:40:36;10.47;;;8.60;;
5871;SDS011;2962;51.312;7.378;2023-04-24T06:43:02;10.57;;;8.70;;
5871;SDS011;2962;51.312;7.378;2023-04-24T06:45:28;10.30;;;9.17;;
5871;SDS011;2962;51.312;7.378;2023-04-24T06:47:54;8.98;;;7.63;;
5871;SDS011;2962;51.312;7.378;2023-04-24T06:50:19;7.77;;;7.03;;
5871;SDS011;2962;51.312;7.378;2023-04-24T06:52:44;12.20;;;9.77;;
5871;SDS011;2962;51.312;7.378;2023-04-24T06:55:10;7.77;;;7.00;;
5871;SDS011;2962;51.312;7.378;2023-04-24T06:57:36;11.40;;;9.07;;
5871;SDS011;2962;51.312;7.378;2023-04-24T07:00:02;12.93;;;9.53;;
5871;SDS011;2962;51.312;7.378;2023-04-24T07:02:28;13.67;;;10.57;;
5871;SDS011;2962;51.312;7.378;2023-04-24T07:04:53;11.80;;;10.60;;
5871;SDS011;2962;51.312;7.378;2023-04-24T07:07:19;15.33;;;10.53;;
5871;SDS011;2962;51.312;7.378;2023-04-24T07:09:44;16.23;;;11.30;;
5871;SDS011;2962;51.312;7.378;2023-04-24T07:12:10;11.82;;;10.65;;
5871;SDS011;2962;51.312;7.378;2023-04-24T07:14:36;11.60;;;9.50;;
5871;SDS011;2962;51.312;7.378;2023-04-24T07:17:03;17.67;;;12.10;;
5871;SDS011;2962;51.312;7.378;2023-04-24T07:19:29;13.43;;;10.07;;
5871;SDS011;2962;51.312;7.378;2023-04-24T07:21:54;9.80;;;8.37;;
5871;SDS011;2962;51.312;7.378;2023-04-24T07:24:20;9.03;;;8.17;;
5871;SDS011;2962;51.312;7.378;2023-04-24T07:26:45;9.37;;;8.43;;
5871;SDS011;2962;51.312;7.378;2023-04-24T07:29:11;7.60;;;6.80;;
5871;SDS011;2962;51.312;7.378;2023-04-24T07:31:38;8.93;;;8.13;;
5871;SDS011;2962;51.312;7.378;2023-04-24T07:34:03;8.07;;;7.33;;
5871;SDS011;2962;51.312;7.378;2023-04-24T07:36:29;5.63;;;4.47;;
5871;SDS011;2962;51.312;7.378;2023-04-24T07:38:54;11.83;;;7.17;;
5871;SDS011;2962;51.312;7.378;2023-04-24T07:41:21;6.30;;;5.90;;
5871;SDS011;2962;51.312;7.378;2023-04-24T07:43:46;4.63;;;4.43;;
5871;SDS011;2962;51.312;7.378;2023-04-24T07:46:12;5.67;;;5.20;;
5871;SDS011;2962;51.312;7.378;2023-04-24T07:48:37;5.27;;;4.97;;
5871;SDS011;2962;51.312;7.378;2023-04-24T07:51:03;2.40;;;2.30;;
5871;SDS011;2962;51.312;7.378;2023-04-24T07:53:28;2.77;;;2.70;;
5871;SDS011;2962;51.312;7.378;2023-04-24T07:55:54;2.27;;;2.27;;
5871;SDS011;2962;51.312;7.378;2023-04-24T07:58:21;2.22;;;1.65;;
5871;SDS011;2962;51.312;7.378;2023-04-24T08:00:46;1.70;;;1.70;;
5871;SDS011;2962;51.312;7.378;2023-04-24T08:03:11;1.80;;;1.80;;
5871;SDS011;2962;51.312;7.378;2023-04-24T08:05:37;1.10;;;1.10;;
5871;SDS011;2962;51.312;7.378;2023-04-24T08:08:03;2.47;;;1.50;;
5871;SDS011;2962;51.312;7.378;2023-04-24T08:10:28;1.00;;;1.00;;
5871;SDS011;2962;51.312;7.378;2023-04-24T08:12:54;1.10;;;1.10;;
5871;SDS011;2962;51.312;7.378;2023-04-24T08:15:23;1.27;;;1.27;;
5871;SDS011;2962;51.312;7.378;2023-04-24T08:17:48;2.45;;;1.58;;
5871;SDS011;2962;51.312;7.378;2023-04-24T08:20:14;1.40;;;1.40;;
5871;SDS011;2962;51.312;7.378;2023-04-24T08:22:40;1.40;;;1.40;;
5871;SDS011;2962;51.312;7.378;2023-04-24T08:25:06;1.63;;;1.63;;
5871;SDS011;2962;51.312;7.378;2023-04-24T08:27:32;1.40;;;1.40;;
5871;SDS011;2962;51.312;7.378;2023-04-24T08:29:58;0.70;;;0.70;;
5871;SDS011;2962;51.312;7.378;2023-04-24T08:32:26;0.50;;;0.50;;
5871;SDS011;2962;51.312;7.378;2023-04-24T08:34:54;0.63;;;0.30;;
5871;SDS011;2962;51.312;7.378;2023-04-24T08:37:21;2.25;;;0.80;;
5871;SDS011;2962;51.312;7.378;2023-04-24T08:39:51;0.20;;;0.20;;
5871;SDS011;2962;51.312;7.378;2023-04-24T08:42:17;0.33;;;0.30;;
5871;SDS011;2962;51.312;7.378;2023-04-24T08:44:43;0.30;;;0.30;;
5871;SDS011;2962;51.312;7.378;2023-04-24T08:47:10;0.30;;;0.30;;
5871;SDS011;2962;51.312;7.378;2023-04-24T08:49:36;0.50;;;0.50;;
5871;SDS011;2962;51.312;7.378;2023-04-24T08:52:03;0.40;;;0.40;;
5871;SDS011;2962;51.312;7.378;2023-04-24T08:54:28;0.33;;;0.33;;
5871;SDS011;2962;51.312;7.378;2023-04-24T08:56:55;1.20;;;1.20;;
5871;SDS011;2962;51.312;7.378;2023-04-24T08:59:25;0.73;;;0.73;;
5871;SDS011;2962;51.312;7.378;2023-04-24T09:01:51;1.10;;;1.10;;
5871;SDS011;2962;51.312;7.378;2023-04-24T09:04:20;2.47;;;2.47;;
5871;SDS011;2962;51.312;7.378;2023-04-24T09:06:48;0.82;;;0.82;;
5871;SDS011;2962;51.312;7.378;2023-04-24T09:09:15;4.90;;;4.60;;
5871;SDS011;2962;51.312;7.378;2023-04-24T09:11:42;0.30;;;0.30;;
5871;SDS011;2962;51.312;7.378;2023-04-24T09:14:09;0.40;;;0.40;;
5871;SDS011;2962;51.312;7.378;2023-04-24T09:16:35;0.25;;;0.25;;
5871;SDS011;2962;51.312;7.378;2023-04-24T09:19:00;0.40;;;0.40;;
5871;SDS011;2962;51.312;7.378;2023-04-24T09:21:30;0.30;;;0.30;;
5871;SDS011;2962;51.312;7.378;2023-04-24T09:23:58;0.30;;;0.30;;
5871;SDS011;2962;51.312;7.378;2023-04-24T09:26:24;0.30;;;0.30;;
5871;SDS011;2962;51.312;7.378;2023-04-24T09:28:50;0.30;;;0.30;;
5871;SDS011;2962;51.312;7.378;2023-04-24T09:31:17;0.40;;;0.40;;
5871;SDS011;2962;51.312;7.378;2023-04-24T09:33:56;0.60;;;0.60;;
5871;SDS011;2962;51.312;7.378;2023-04-24T09:36:26;0.20;;;0.20;;
5871;SDS011;2962;51.312;7.378;2023-04-24T09:38:55;1.45;;;0.63;;
5871;SDS011;2962;51.312;7.378;2023-04-24T09:41:23;0.28;;;0.28;;
5871;SDS011;2962;51.312;7.378;2023-04-24T09:43:48;0.50;;;0.50;;
5871;SDS011;2962;51.312;7.378;2023-04-24T09:46:13;0.73;;;0.73;;
5871;SDS011;2962;51.312;7.378;2023-04-24T09:48:39;0.70;;;0.70;;
5871;SDS011;2962;51.312;7.378;2023-04-24T09:51:05;0.90;;;0.90;;
5871;SDS011;2962;51.312;7.378;2023-04-24T09:53:32;3.83;;;1.60;;
5871;SDS011;2962;51.312;7.378;2023-04-24T09:56:10;1.53;;;1.53;;
5871;SDS011;2962;51.312;7.378;2023-04-24T09:58:37;4.60;;;2.47;;
5871;SDS011;2962;51.312;7.378;2023-04-24T10:01:04;2.17;;;2.07;;
5871;SDS011;2962;51.312;7.378;2023-04-24T10:03:30;1.58;;;1.48;;
5871;SDS011;2962;51.312;7.378;2023-04-24T10:06:00;1.15;;;1.15;;
5871;SDS011;2962;51.312;7.378;2023-04-24T10:08:27;4.55;;;1.17;;
5871;SDS011;2962;51.312;7.378;2023-04-24T10:11:02;2.70;;;1.23;;
5871;SDS011;2962;51.312;7.378;2023-04-24T10:13:28;2.22;;;1.88;;
5871;SDS011;2962;51.312;7.378;2023-04-24T10:15:54;1.93;;;1.93;;
5871;SDS011;2962;51.312;7.378;2023-04-24T10:18:21;1.20;;;1.20;;
5871;SDS011;2962;51.312;7.378;2023-04-24T10:20:46;5.90;;;1.50;;
5871;SDS011;2962;51.312;7.378;2023-04-24T10:23:12;1.87;;;1.73;;
5871;SDS011;2962;51.312;7.378;2023-04-24T10:25:38;2.40;;;2.30;;
5871;SDS011;2962;51.312;7.378;2023-04-24T10:28:04;1.90;;;1.90;;
5871;SDS011;2962;51.312;7.378;2023-04-24T10:30:31;2.97;;;1.88;;
5871;SDS011;2962;51.312;7.378;2023-04-24T10:33:05;1.98;;;1.90;;
5871;SDS011;2962;51.312;7.378;2023-04-24T10:35:34;1.67;;;1.60;;
5871;SDS011;2962;51.312;7.378;2023-04-24T10:38:03;2.85;;;2.70;;
5871;SDS011;2962;51.312;7.378;2023-04-24T10:40:32;2.50;;;2.35;;
5871;SDS011;2962;51.312;7.378;2023-04-24T10:43:01;2.67;;;2.47;;
5871;SDS011;2962;51.312;7.378;2023-04-24T10:45:27;3.25;;;3.00;;
5871;SDS011;2962;51.312;7.378;2023-04-24T10:48:05;2.50;;;2.30;;
5871;SDS011;2962;51.312;7.378;2023-04-24T10:50:50;4.00;;;3.80;;
5871;SDS011;2962;51.312;7.378;2023-04-24T10:53:18;6.70;;;2.17;;
5871;SDS011;2962;51.312;7.378;2023-04-24T10:58:22;2.15;;;2.05;;
5871;SDS011;2962;51.312;7.378;2023-04-24T11:00:58;3.65;;;2.95;;
5871;SDS011;2962;51.312;7.378;2023-04-24T11:03:28;9.48;;;3.55;;
5871;SDS011;2962;51.312;7.378;2023-04-24T11:06:05;6.35;;;4.35;;
5871;SDS011;2962;51.312;7.378;2023-04-24T11:08:37;5.25;;;3.88;;
5871;SDS011;2962;51.312;7.378;2023-04-24T11:11:13;7.97;;;5.05;;
5871;SDS011;2962;51.312;7.378;2023-04-24T11:19:09;8.93;;;5.22;;
5871;SDS011;2962;51.312;7.378;2023-04-24T11:27:21;3.65;;;3.35;;
5871;SDS011;2962;51.312;7.378;2023-04-24T11:35:15;9.85;;;6.50;;
5871;SDS011;2962;51.312;7.378;2023-04-24T11:37:51;8.13;;;6.50;;
5871;SDS011;2962;51.312;7.378;2023-04-24T11:40:18;11.63;;;6.70;;
5871;SDS011;2962;51.312;7.378;2023-04-24T11:42:46;7.10;;;5.28;;
5871;SDS011;2962;51.312;7.378;2023-04-24T11:45:17;8.73;;;5.82;;
5871;SDS011;2962;51.312;7.378;2023-04-24T11:47:44;13.77;;;6.80;;
5871;SDS011;2962;51.312;7.378;2023-04-24T11:50:14;14.50;;;5.60;;
5871;SDS011;2962;51.312;7.378;2023-04-24T11:52:41;8.35;;;4.43;;
5871;SDS011;2962;51.312;7.378;2023-04-24T11:55:22;8.00;;;6.13;;
5871;SDS011;2962;51.312;7.378;2023-04-24T11:57:52;8.88;;;4.50;;
5871;SDS011;2962;51.312;7.378;2023-04-24T12:00:22;19.80;;;7.07;;
5871;SDS011;2962;51.312;7.378;2023-04-24T12:02:52;10.77;;;7.40;;
5871;SDS011;2962;51.312;7.378;2023-04-24T12:05:30;8.90;;;5.23;;
5871;SDS011;2962;51.312;7.378;2023-04-24T12:07:56;5.93;;;2.93;;
5871;SDS011;2962;51.312;7.378;2023-04-24T12:10:25;3.70;;;2.83;;
5871;SDS011;2962;51.312;7.378;2023-04-24T12:12:52;3.50;;;3.20;;
5871;SDS011;2962;51.312;7.378;2023-04-24T12:15:21;4.93;;;4.10;;
5871;SDS011;2962;51.312;7.378;2023-04-24T12:17:47;6.03;;;4.33;;
5871;SDS011;2962;51.312;7.378;2023-04-24T12:20:15;9.57;;;4.93;;
5871;SDS011;2962;51.312;7.378;2023-04-24T12:22:48;8.03;;;3.60;;
5871;SDS011;2962;51.312;7.378;2023-04-24T12:25:21;6.27;;;3.50;;
5871;SDS011;2962;51.312;7.378;2023-04-24T12:27:52;5.07;;;2.70;;
5871;SDS011;2962;51.312;7.378;2023-04-24T12:30:38;3.50;;;3.00;;
5871;SDS011;2962;51.312;7.378;2023-04-24T12:33:17;2.83;;;2.63;;
5871;SDS011;2962;51.312;7.378;2023-04-24T12:35:45;3.17;;;2.93;;
5871;SDS011;2962;51.312;7.378;2023-04-24T12:38:13;4.30;;;2.00;;
5871;SDS011;2962;51.312;7.378;2023-04-24T12:40:40;7.20;;;4.10;;
5871;SDS011;2962;51.312;7.378;2023-04-24T12:43:16;9.50;;;3.60;;
5871;SDS011;2962;51.312;7.378;2023-04-24T12:45:43;3.43;;;2.43;;
5871;SDS011;2962;51.312;7.378;2023-04-24T12:48:10;5.27;;;2.77;;
5871;SDS011;2962;51.312;7.378;2023-04-24T12:50:35;3.77;;;2.43;;
5871;SDS011;2962;51.312;7.378;2023-04-24T12:53:00;3.87;;;3.33;;
5871;SDS011;2962;51.312;7.378;2023-04-24T12:55:26;5.20;;;3.40;;
5871;SDS011;2962;51.312;7.378;2023-04-24T12:57:51;9.07;;;2.40;;
5871;SDS011;2962;51.312;7.378;2023-04-24T13:00:18;3.33;;;2.00;;
5871;SDS011;2962;51.312;7.378;2023-04-24T13:02:43;6.00;;;2.57;;
5871;SDS011;2962;51.312;7.378;2023-04-24T13:05:09;4.07;;;2.63;;
5871;SDS011;2962;51.312;7.378;2023-04-24T13:07:36;3.03;;;2.83;;
5871;SDS011;2962;51.312;7.378;2023-04-24T13:10:01;2.83;;;2.27;;
5871;SDS011;2962;51.312;7.378;2023-04-24T13:12:27;1.60;;;1.50;;
5871;SDS011;2962;51.312;7.378;2023-04-24T13:14:52;4.20;;;1.97;;
5871;SDS011;2962;51.312;7.378;2023-04-24T13:17:18;7.07;;;2.13;;
5871;SDS011;2962;51.312;7.378;2023-04-24T13:19:44;1.90;;;1.77;;
5871;SDS011;2962;51.312;7.378;2023-04-24T13:22:10;5.10;;;2.70;;
5871;SDS011;2962;51.312;7.378;2023-04-24T13:24:37;6.10;;;2.40;;
5871;SDS011;2962;51.312;7.378;2023-04-24T13:27:04;7.03;;;2.93;;
5871;SDS011;2962;51.312;7.378;2023-04-24T13:29:30;5.27;;;1.87;;
5871;SDS011;2962;51.312;7.378;2023-04-24T13:31:55;3.30;;;2.20;;
5871;SDS011;2962;51.312;7.378;2023-04-24T13:34:21;2.13;;;1.70;;
5871;SDS011;2962;51.312;7.378;2023-04-24T13:36:51;4.77;;;1.90;;
5871;SDS011;2962;51.312;7.378;2023-04-24T13:39:17;3.40;;;1.20;;
5871;SDS011;2962;51.312;7.378;2023-04-24T13:41:43;2.33;;;0.93;;
5871;SDS011;2962;51.312;7.378;2023-04-24T13:44:08;3.83;;;1.80;;
5871;SDS011;2962;51.312;7.378;2023-04-24T13:46:34;1.20;;;1.20;;
5871;SDS011;2962;51.312;7.378;2023-04-24T13:48:59;4.13;;;1.30;;
5871;SDS011;2962;51.312;7.378;2023-04-24T13:51:25;1.60;;;1.50;;
5871;SDS011;2962;51.312;7.378;2023-04-24T13:53:53;3.80;;;1.27;;
5871;SDS011;2962;51.312;7.378;2023-04-24T13:56:20;0.60;;;0.60;;
5871;SDS011;2962;51.312;7.378;2023-04-24T13:58:45;4.33;;;0.90;;
5871;SDS011;2962;51.312;7.378;2023-04-24T14:01:11;1.87;;;0.90;;
5871;SDS011;2962;51.312;7.378;2023-04-24T14:03:37;3.63;;;0.73;;
5871;SDS011;2962;51.312;7.378;2023-04-24T14:06:03;1.37;;;1.20;;
5871;SDS011;2962;51.312;7.378;2023-04-24T14:08:28;1.30;;;1.20;;
5871;SDS011;2962;51.312;7.378;2023-04-24T14:10:53;1.70;;;1.60;;
5871;SDS011;2962;51.312;7.378;2023-04-24T14:13:19;1.47;;;1.20;;
5871;SDS011;2962;51.312;7.378;2023-04-24T14:15:45;1.43;;;1.20;;
5871;SDS011;2962;51.312;7.378;2023-04-24T14:18:10;2.00;;;1.13;;
5871;SDS011;2962;51.312;7.378;2023-04-24T14:20:36;6.03;;;2.30;;
5871;SDS011;2962;51.312;7.378;2023-04-24T14:23:01;4.03;;;1.53;;
5871;SDS011;2962;51.312;7.378;2023-04-24T14:25:26;1.63;;;0.77;;
5871;SDS011;2962;51.312;7.378;2023-04-24T14:27:52;4.27;;;3.23;;
5871;SDS011;2962;51.312;7.378;2023-04-24T14:30:18;3.17;;;1.47;;
5871;SDS011;2962;51.312;7.378;2023-04-24T14:32:43;1.47;;;0.97;;
5871;SDS011;2962;51.312;7.378;2023-04-24T14:35:09;3.70;;;0.83;;
5871;SDS011;2962;51.312;7.378;2023-04-24T14:37:34;1.17;;;1.17;;
5871;SDS011;2962;51.312;7.378;2023-04-24T14:40:01;1.03;;;0.80;;
5871;SDS011;2962;51.312;7.378;2023-04-24T14:42:26;2.13;;;0.93;;
5871;SDS011;2962;51.312;7.378;2023-04-24T14:44:53;2.97;;;0.70;;
5871;SDS011;2962;51.312;7.378;2023-04-24T14:47:19;3.50;;;0.90;;
5871;SDS011;2962;51.312;7.378;2023-04-24T14:49:46;1.10;;;1.00;;
5871;SDS011;2962;51.312;7.378;2023-04-24T14:52:12;1.10;;;1.10;;
5871;SDS011;2962;51.312;7.378;2023-04-24T14:54:37;1.37;;;1.20;;
5871;SDS011;2962;51.312;7.378;2023-04-24T14:57:03;2.13;;;1.20;;
5871;SDS011;2962;51.312;7.378;2023-04-24T14:59:28;0.70;;;0.70;;
5871;SDS011;2962;51.312;7.378;2023-04-24T15:01:53;2.10;;;0.83;;
5871;SDS011;2962;51.312;7.378;2023-04-24T15:04:23;2.70;;;0.80;;
5871;SDS011;2962;51.312;7.378;2023-04-24T15:06:50;2.50;;;1.00;;
5871;SDS011;2962;51.312;7.378;2023-04-24T15:09:16;1.03;;;0.90;;
5871;SDS011;2962;51.312;7.378;2023-04-24T15:11:41;0.33;;;0.33;;
5871;SDS011;2962;51.312;7.378;2023-04-24T15:14:07;0.63;;;0.63;;
5871;SDS011;2962;51.312;7.378;2023-04-24T15:16:32;1.90;;;0.70;;
5871;SDS011;2962;51.312;7.378;2023-04-24T15:18:58;2.53;;;1.23;;
5871;SDS011;2962;51.312;7.378;2023-04-24T15:21:23;1.33;;;0.90;;
5871;SDS011;2962;51.312;7.378;2023-04-24T15:23:48;2.77;;;0.60;;
5871;SDS011;2962;51.312;7.378;2023-04-24T15:26:14;1.70;;;1.00;;